Date,TemperatureHighF,TemperatureAvgF,TemperatureLowF,DewpointHighF,DewpointAvgF,DewpointLowF,HumidityHigh,HumidityAvg,HumidityLow,PressureMaxIn,PressureMinIn,WindSpeedMaxMPH,WindSpeedAvgMPH,GustSpeedMaxMPH,PrecipitationSumIn
2013-2-1,62,50,42,42,37,32,76,62,44,30.10,30.02,6,0,6,0.00
2013-2-2,64,52,45,44,38,34,71,61,47,30.15,30.07,0,0,0,0.00
2013-2-3,60,50,42,45,38,33,75,66,54,30.08,29.97,0,0,0,0.00
2013-2-4,60,49,42,44,38,32,78,65,52,30.01,29.91,0,0,0,0.00
2013-2-5,55,47,42,45,40,34,82,74,65,29.99,29.87,8,0,8,0.00
2013-2-6,55,45,37,40,36,31,83,71,55,30.00,29.93,9,0,9,0.00
2013-2-7,47,43,38,41,37,33,83,78,68,29.95,29.80,18,0,18,0.61
2013-2-8,52,42,35,38,30,22,83,64,42,29.85,29.78,6,0,6,0.02
2013-2-9,53,42,33,31,27,23,69,57,37,29.93,29.83,0,0,0,0.00
2013-2-10,56,45,36,36,30,24,73,56,35,29.97,29.88,13,0,13,0.00
2013-2-11,58,47,38,36,29,24,68,51,38,30.09,29.96,0,0,0,0.00
2013-2-12,56,45,38,38,34,28,77,64,50,30.20,30.08,0,0,0,0.00
2013-2-13,62,49,39,43,37,31,77,66,44,30.17,30.05,0,0,0,0.00
2013-2-14,70,58,44,43,36,30,75,46,27,30.14,30.05,19,0,19,0.00
2013-2-15,66,56,49,41,36,30,66,49,38,30.15,30.09,0,0,0,0.00
2013-2-16,49,46,44,37,33,31,64,60,57,30.12,30.06,0,0,0,0.00
2013-2-18,59,51,43,41,38,32,76,62,45,29.85,29.72,16,0,16,0.00
2013-2-19,44,38,32,38,32,28,83,79,74,29.73,29.55,21,0,21,0.43
2013-2-20,54,41,32,38,31,27,83,69,45,29.85,29.65,6,0,6,0.02
2013-2-21,55,44,33,34,30,25,76,59,40,30.00,29.84,7,0,7,0.00
2013-2-22,58,48,38,39,34,28,68,59,48,30.07,29.94,14,0,14,0.00
2013-2-23,55,47,38,36,27,18,75,49,28,30.10,29.94,19,0,19,0.00
2013-2-24,59,46,36,31,26,20,56,45,32,30.11,30.00,0,0,0,0.00
2013-2-25,58,48,39,35,28,22,61,47,28,30.11,30.01,0,0,0,0.00
2013-2-26,62,50,40,32,25,17,52,37,28,30.07,30.01,11,0,11,0.00
2013-2-27,64,51,42,35,29,22,54,43,31,30.21,30.06,0,0,0,0.00
2013-2-28,67,54,44,42,37,30,66,52,38,30.29,30.19,4,0,4,0.00